X  Schließen METAR Luftfahrt Wetterdaten     LYNI Nis Airport
Temperatur
20°C Temperatur
12°C Taupunkt
60% Feuchtigkeit



Wind
15 MPS
24 KM/S
7 M/S
13 KTS



320°
NW
Aktuelle Wetterlage

Teilweise bewölkt Teilweise bewölkt
Luftdruck 1015.92 (hPa) - 30 (inHg)
Sichtweite 6 (Meile) - 9.7 (Km)
Flughafen
Flughafen Code LYNI

Position : Nis Airport
Entfernung: 63 (mi)

Metar:
LYNI 231200Z 32013KT 9999 FEW033 SCT060 20/12 Q1016 NOSIG

Zeit: 23-05-2024 14:00 CEST